LGTS - Thessaloniki/Mik, Greece
Distance from station: 15km
: 16/06/2024 05:50
Clear
Clear

: 11 km/h
: 18°C
: 14°C
: 78%
: 1011 hPa
: Clear
Visibility: greater than 10 km
2024/06/16 02:50 LGTS 160250Z 11006KT CAVOK 18/14 Q1011 NOSIG
LGKZ - Kozani (civ/Army, Greece
Distance from station: 113km
: 16/06/2024 05:50
Clear
Clear

: 9 km/h
: 16°C
: 11°C
: 72%
: 1014 hPa
: Clear
Visibility: greater than 10 km
2024/06/16 02:50 LGKZ 160250Z 35005KT CAVOK 16/11 Q1014
 
LGKV - Kavala/Chrisoupo, Greece
Distance from station: 132km
: 15/06/2024 23:50
NOT Current
Few Clouds
Few Clouds
   calm
:
: 20°C
: 17°C
: 83%
: 1011 hPa
Clouds: Few Clouds
Visibility: 10 km
Cloud details: Few Clouds 610 m
2024/06/15 20:50 LGKV 152050Z 00000KT 9999 FEW020 20/17 Q1011
LGBL - Nea Anchialos, Greece
Distance from station: 156km
: 16/06/2024 05:50
Clear
Clear

: 7 km/h
: 19°C
: 15°C
: 78%
: 1010 hPa
: Clear
Visibility: greater than 10 km
2024/06/16 02:50 LGBL 160250Z 24004KT CAVOK 19/15 Q1010
 
LGSK - Skiathos Island, Greece
Distance from station: 161km
: 15/06/2024 21:20
NOT Current
Clear
Clear
   varies
: varies 6 km/h
: 25°C
: 15°C
: 54%
: 1010 hPa
: Clear
Visibility: greater than 10 km
2024/06/15 18:20 LGSK 151820Z VRB03KT CAVOK 25/15 Q1010
LWSK - Skopje/Petrovac, Macedonia
Distance from station: 195km
: 16/06/2024 05:20
Clear
Clear

: 7 km/h
: 16°C
: 13°C
: 83%
: 1012 hPa
: Clear
Visibility: greater than 10 km
2024/06/16 02:20 LWSK 160220Z 05004KT 360V130 CAVOK 16/13 Q1012 NOSIG
 
LGLM - Limnos Island Ar, Greece
Distance from station: 196km
: 16/06/2024 05:50
Clear
Clear
   calm
:
: 19°C
: 18°C
: 94%
: 1010 hPa
: Clear
Visibility: greater than 10 km
2024/06/16 02:50 LGLM 160250Z 00000KT CAVOK 19/18 Q1010
LWOH - Ohrid, Macedonia
Distance from station: 202km
: 16/06/2024 05:50
Few Clouds
Few Clouds

: 7 km/h
: 10°C
Wind Chill: 9°C
: 10°C
: 100%
: 1015 hPa
Clouds: Few Clouds
Visibility: 10 km
Cloud details: Few Clouds 1219 m
2024/06/16 02:50 LWOH 160250Z 29004KT 9999 FEW040 10/10 Q1015
 
LGSY - Skiros, Greece
Distance from station: 217km
: 16/06/2024 05:50
Clear
Clear
   calm
:
: 18°C
: 14°C
: 78%
: 1009 hPa
: Clear
Visibility: greater than 10 km
2024/06/16 02:50 LGSY 160250Z 00000KT CAVOK 18/14 Q1009 BLU
LGIO - Ioannina, Greece
Distance from station: 218km
: 16/06/2024 05:50

   varies
: varies 4 km/h
: 11°C
: 10°C
: 94%
: 1014 hPa
2024/06/16 02:50 LGIO 160250Z AUTO VRB02KT //// // ////// 11/10 Q1014 RE//
 
LBPD - Plovdiv, Bulgaria
Distance from station: 222km
: 16/06/2024 06:00
Clear
Clear
   varies
: varies 4 km/h
: 13°C
: 9°C
: 77%
: 1012 hPa
Clouds: Clear
Visibility: 10 km
2024/06/16 03:00 LBPD 160300Z AUTO VRB02KT 9999 NCD 13/09 Q1012 NOSIG
LBSF - Sofia (observato, Bulgaria
Distance from station: 229km
: 16/06/2024 06:00
Clear
Clear

: 4 km/h
: 12°C
: 9°C
: 82%
: 1014 hPa
Clouds: Clear
Visibility: 10 km
2024/06/16 03:00 LBSF 160300Z AUTO 34002KT 9999 NCD 12/09 Q1014 NOSIG
 
LGAL - Alexandroupolis, Greece
Distance from station: 242km
: 16/06/2024 05:50
Clear
Clear
   varies
: varies 6 km/h
: 17°C
: 14°C
: 83%
: 1010 hPa
: Clear
Visibility: greater than 10 km
2024/06/16 02:50 LGAL 160250Z VRB03KT CAVOK 17/14 Q1010
LGPZ - Preveza/Aktion, Greece
Distance from station: 274km
: 16/06/2024 05:50
Partly Cloudy
Partly Cloudy

: 7 km/h
: 19°C
: 19°C
: 100%
: 1012 hPa
Clouds: Partly Cloudy
Visibility: 10 km
Cloud details: Partly Cloudy 457 m
2024/06/16 02:50 LGPZ 160250Z 04004KT 9999 SCT015 19/19 Q1012
 
BKPR - Prishtina, Yugoslavia
Distance from station: 280km
: 16/06/2024 06:00
Clear
Clear

: 7 km/h
: 14°C
: 12°C
: 88%
: 1013 hPa
: Clear
Visibility: greater than 10 km
2024/06/16 03:00 BKPR 160300Z 34004KT CAVOK 14/12 Q1013 NOSIG
LGEL - Elefsis (hel-Afb, Greece
Distance from station: 284km
: 16/06/2024 05:50
Clear
Clear
   calm
:
: 22°C
: 14°C
: 61%
: 1010 hPa
: Clear
Visibility: greater than 10 km
2024/06/16 02:50 LGEL 160250Z 00000KT CAVOK 22/14 Q1010
 
LATI - Tirana, Albania
Distance from station: 291km
: 16/06/2024 05:50
Clear
Clear
   varies
: varies 4 km/h
: 17°C
: 17°C
: 100%
: 1012 hPa
: Clear
Visibility: greater than 10 km
2024/06/16 02:50 LATI 160250Z VRB02KT CAVOK 17/17 Q1012 NOSIG
LGKR - Ioannis Kapodist, Greece
Distance from station: 292km
: 16/06/2024 05:50
Clear
Clear
   calm
:
: 19°C
: 18°C
: 94%
: 1011 hPa
: Clear
Visibility: greater than 10 km
2024/06/16 02:50 LGKR 160250Z 00000KT CAVOK 19/18 Q1011 NOSIG